TimePDT,TemperatureF,Dew PointF,Humidity,Sea Level PressureIn,VisibilityMPH,Wind Direction,Wind SpeedMPH,Gust SpeedMPH,PrecipitationIn,Events,Conditions,WindDirDegrees,DateUTC
12:53 AM,82.0,48.9,31,29.58,10.0,West,5.8,-,N/A,,Clear,270,2013-09-14 07:53:00
1:53 AM,80.1,48.9,34,29.58,10.0,WNW,6.9,-,N/A,,Clear,290,2013-09-14 08:53:00
2:53 AM,78.1,50.0,37,29.57,10.0,West,4.6,-,N/A,,Clear,270,2013-09-14 09:53:00
3:53 AM,77.0,50.0,39,29.57,10.0,West,4.6,-,N/A,,Clear,280,2013-09-14 10:53:00
4:53 AM,75.9,50.0,40,29.58,10.0,WSW,4.6,-,N/A,,Clear,250,2013-09-14 11:53:00
5:53 AM,75.9,50.0,40,29.58,10.0,WSW,5.8,-,N/A,,Clear,240,2013-09-14 12:53:00
6:53 AM,75.9,50.0,40,29.60,10.0,West,5.8,-,N/A,,Clear,270,2013-09-14 13:53:00
7:53 AM,81.0,52.0,36,29.61,10.0,West,5.8,-,N/A,,Clear,270,2013-09-14 14:53:00
8:53 AM,89.1,50.0,26,29.62,10.0,Calm,Calm,-,N/A,,Clear,0,2013-09-14 15:53:00
9:53 AM,96.1,48.0,19,29.62,10.0,NW,5.8,-,N/A,,Clear,320,2013-09-14 16:53:00
10:53 AM,100.9,45.0,15,29.62,10.0,North,6.9,-,N/A,,Clear,360,2013-09-14 17:53:00
11:53 AM,102.9,42.1,13,29.61,10.0,Calm,Calm,-,N/A,,Clear,0,2013-09-14 18:53:00
12:53 PM,105.1,44.1,13,29.59,10.0,SSW,3.5,-,N/A,,Clear,200,2013-09-14 19:53:00
1:53 PM,106.0,45.0,13,29.57,10.0,Calm,Calm,-,N/A,,Clear,0,2013-09-14 20:53:00
2:53 PM,106.0,45.0,13,29.55,10.0,Calm,Calm,-,N/A,,Clear,0,2013-09-14 21:53:00
3:53 PM,106.0,46.0,13,29.53,10.0,ESE,3.5,-,N/A,,Clear,120,2013-09-14 22:53:00
4:53 PM,107.1,44.1,12,29.52,10.0,Variable,5.8,-,N/A,,Clear,0,2013-09-14 23:53:00
5:53 PM,106.0,46.0,13,29.52,10.0,South,5.8,-,N/A,,Clear,180,2013-09-15 00:53:00
6:53 PM,100.0,51.1,19,29.52,10.0,SW,3.5,-,N/A,,Clear,230,2013-09-15 01:53:00
7:53 PM,95.0,53.1,24,29.54,10.0,SSW,3.5,-,N/A,,Clear,200,2013-09-15 02:53:00
8:53 PM,93.0,53.1,26,29.56,10.0,SSW,3.5,-,N/A,,Clear,200,2013-09-15 03:53:00
9:53 PM,88.0,54.0,31,29.57,10.0,Calm,Calm,-,N/A,,Clear,0,2013-09-15 04:53:00
10:53 PM,91.0,53.1,27,29.58,10.0,Calm,Calm,-,N/A,,Clear,0,2013-09-15 05:53:00
11:53 PM,86.0,55.9,36,29.58,10.0,Calm,Calm,-,N/A,,Clear,0,2013-09-15 06:53:00